createdAt,value
2017-03-25T00:00:09.408Z,8.91
2017-03-25T00:00:50.106Z,8.91
2017-03-25T00:01:30.883Z,9.02
2017-03-25T00:02:11.602Z,8.92
2017-03-25T00:02:52.220Z,8.92
2017-03-25T00:03:32.956Z,8.97
2017-03-25T00:04:13.635Z,8.94
2017-03-25T00:04:54.295Z,8.95
2017-03-25T00:05:34.885Z,8.97
2017-03-25T00:06:15.551Z,8.91
2017-03-25T00:06:56.255Z,8.94
2017-03-25T00:07:36.909Z,8.87
2017-03-25T00:08:17.512Z,8.87
2017-03-25T00:08:58.150Z,8.88
2017-03-25T00:09:38.768Z,8.85
2017-03-25T00:10:19.466Z,8.85
2017-03-25T00:11:00.048Z,8.88
2017-03-25T00:11:40.646Z,8.73
2017-03-25T00:12:21.220Z,8.81
2017-03-25T00:13:01.867Z,8.78
2017-03-25T00:13:42.472Z,8.79
2017-03-25T00:14:23.196Z,8.81
2017-03-25T00:15:03.810Z,8.78
2017-03-25T00:15:44.410Z,8.81
2017-03-25T00:16:25.004Z,8.74
2017-03-25T00:17:05.623Z,8.78
2017-03-25T00:17:46.227Z,8.76
2017-03-25T00:18:26.803Z,8.78
2017-03-25T00:19:07.432Z,8.81
2017-03-25T00:19:48.007Z,8.78
2017-03-25T00:20:28.620Z,8.7
2017-03-25T00:21:09.210Z,8.79
2017-03-25T00:21:49.822Z,8.74
2017-03-25T00:22:30.425Z,8.78
2017-03-25T00:23:11.012Z,8.74
2017-03-25T00:23:51.586Z,8.7
2017-03-25T00:24:32.207Z,8.74
2017-03-25T00:25:12.854Z,8.78
2017-03-25T00:25:53.474Z,8.64
2017-03-25T00:26:34.095Z,8.64
2017-03-25T00:27:14.715Z,8.64
2017-03-25T00:27:55.332Z,8.66
2017-03-25T00:28:35.908Z,8.67
2017-03-25T00:29:16.498Z,8.7
2017-03-25T00:29:57.088Z,8.66
2017-03-25T00:30:37.674Z,8.7
2017-03-25T00:31:18.264Z,8.58
2017-03-25T00:31:58.868Z,8.58
2017-03-25T00:32:39.461Z,8.64
2017-03-25T00:33:20.260Z,8.58
2017-03-25T00:34:00.858Z,8.51
2017-03-25T00:34:41.526Z,8.51
2017-03-25T00:35:22.227Z,8.52
2017-03-25T00:36:02.921Z,8.53
2017-03-25T00:36:43.649Z,8.51
2017-03-25T00:37:24.309Z,8.51
2017-03-25T00:38:05.020Z,8.46
2017-03-25T00:38:45.739Z,8.55
2017-03-25T00:39:26.394Z,8.63
2017-03-25T00:40:07.188Z,8.56
2017-03-25T00:40:47.802Z,8.53
2017-03-25T00:41:28.415Z,8.51
2017-03-25T00:42:09.074Z,8.52
2017-03-25T00:42:49.705Z,8.48
2017-03-25T00:43:30.343Z,8.51
2017-03-25T00:44:10.966Z,8.52
2017-03-25T00:44:51.595Z,8.51
2017-03-25T00:45:32.197Z,8.49
2017-03-25T00:46:12.830Z,8.49
2017-03-25T00:46:53.438Z,8.41
2017-03-25T00:47:34.024Z,8.48
2017-03-25T00:48:14.641Z,8.53
2017-03-25T00:48:55.432Z,8.38
2017-03-25T00:49:36.088Z,8.52
2017-03-25T00:50:16.698Z,8.48
2017-03-25T00:50:57.298Z,8.45
2017-03-25T00:51:37.951Z,8.49
2017-03-25T00:52:18.585Z,8.46
2017-03-25T00:52:59.202Z,8.49
2017-03-25T00:53:39.890Z,8.46
2017-03-25T00:54:20.503Z,8.44
2017-03-25T00:55:01.157Z,8.46
2017-03-25T00:55:41.750Z,8.45
2017-03-25T00:56:22.380Z,8.46
2017-03-25T00:57:02.999Z,8.42
2017-03-25T00:57:43.583Z,8.37
2017-03-25T00:58:24.173Z,8.44
2017-03-25T00:59:04.762Z,8.36
2017-03-25T00:59:45.361Z,8.45
2017-03-25T01:00:25.933Z,8.42
2017-03-25T01:01:06.515Z,8.42
2017-03-25T01:01:47.196Z,8.38
2017-03-25T01:02:27.791Z,8.42
2017-03-25T01:03:08.378Z,8.44
2017-03-25T01:03:48.984Z,8.42
2017-03-25T01:04:29.596Z,8.34
2017-03-25T01:05:10.189Z,8.37
2017-03-25T01:05:50.842Z,8.37
2017-03-25T01:06:31.413Z,8.38
2017-03-25T01:07:11.987Z,8.36
2017-03-25T01:07:52.612Z,8.37
2017-03-25T01:08:33.163Z,8.3
2017-03-25T01:09:13.849Z,8.41
2017-03-25T01:09:54.457Z,8.37
2017-03-25T01:10:35.076Z,8.38
2017-03-25T01:11:15.633Z,8.45
2017-03-25T01:11:56.222Z,8.38
2017-03-25T01:12:36.862Z,8.36
2017-03-25T01:13:17.462Z,8.31
2017-03-25T01:13:58.736Z,8.37
2017-03-25T01:14:39.318Z,8.31
2017-03-25T01:15:19.890Z,8.31
2017-03-25T01:16:00.463Z,8.31
2017-03-25T01:16:41.033Z,8.28
2017-03-25T01:17:21.614Z,8.3
2017-03-25T01:18:02.199Z,8.33
2017-03-25T01:18:42.789Z,8.31
2017-03-25T01:19:23.364Z,8.3
2017-03-25T01:20:03.933Z,8.27
2017-03-25T01:20:44.532Z,8.19
2017-03-25T01:21:25.127Z,8.24
2017-03-25T01:22:05.743Z,8.2
2017-03-25T01:22:46.333Z,8.2
2017-03-25T01:23:26.934Z,8.18
2017-03-25T01:24:07.539Z,8.19
2017-03-25T01:24:48.138Z,8.24
2017-03-25T01:25:30.429Z,8.18
2017-03-25T01:26:10.997Z,8.16
2017-03-25T01:26:51.648Z,8.18
2017-03-25T01:27:32.400Z,8.23
2017-03-25T01:28:12.987Z,8.2
2017-03-25T01:28:53.618Z,8.26
2017-03-25T01:29:34.289Z,8.2
2017-03-25T01:30:14.929Z,8.15
2017-03-25T01:30:55.678Z,8.13
2017-03-25T01:31:36.340Z,8.15
2017-03-25T01:32:16.965Z,8.15
2017-03-25T01:32:57.596Z,8.1
2017-03-25T01:33:38.180Z,8.13
2017-03-25T01:34:18.794Z,8.13
2017-03-25T01:34:59.379Z,8.13
2017-03-25T01:35:39.986Z,8.12
2017-03-25T01:36:20.678Z,8.15
2017-03-25T01:37:01.952Z,8.13
2017-03-25T01:37:42.528Z,8.15
2017-03-25T01:38:23.166Z,8.12
2017-03-25T01:39:03.775Z,8.01
2017-03-25T01:39:44.365Z,8.03
2017-03-25T01:40:24.985Z,8.06
2017-03-25T01:41:05.586Z,8.01
2017-03-25T01:41:46.216Z,8
2017-03-25T01:42:26.798Z,8.01
2017-03-25T01:43:07.388Z,8
2017-03-25T01:43:47.991Z,8.01
2017-03-25T01:44:28.578Z,8.05
2017-03-25T01:45:09.152Z,8.03
2017-03-25T01:45:49.740Z,8.08
2017-03-25T01:46:30.416Z,7.97
2017-03-25T01:47:11.003Z,8.12
2017-03-25T01:47:51.573Z,8.08
2017-03-25T01:48:32.159Z,8.08
2017-03-25T01:49:12.743Z,8
2017-03-25T01:49:53.351Z,7.9
2017-03-25T01:50:34.020Z,8.01
2017-03-25T01:51:14.570Z,8.08
2017-03-25T01:51:55.231Z,7.95
2017-03-25T01:52:35.807Z,7.95
2017-03-25T01:53:16.389Z,7.9
2017-03-25T01:53:56.964Z,8.01
2017-03-25T01:54:37.575Z,8.06
2017-03-25T01:55:18.154Z,8
2017-03-25T01:55:58.724Z,8.03
2017-03-25T01:56:39.288Z,8.08
2017-03-25T01:57:19.855Z,7.91
2017-03-25T01:58:00.430Z,8.01
2017-03-25T01:58:41.042Z,7.98
2017-03-25T01:59:21.587Z,7.93
2017-03-25T02:00:02.181Z,8.05
2017-03-25T02:00:42.777Z,7.95
2017-03-25T02:01:23.368Z,7.94
2017-03-25T02:02:03.977Z,7.94
2017-03-25T02:02:44.586Z,7.91
2017-03-25T02:03:25.275Z,7.97
2017-03-25T02:04:05.877Z,7.91
2017-03-25T02:04:46.466Z,7.88
2017-03-25T02:05:27.116Z,7.91
2017-03-25T02:06:07.735Z,7.94
2017-03-25T02:06:48.316Z,7.93
2017-03-25T02:07:28.902Z,7.93
2017-03-25T02:08:09.602Z,7.94
2017-03-25T02:08:50.210Z,7.95
2017-03-25T02:09:30.753Z,7.87
2017-03-25T02:10:11.327Z,7.97
2017-03-25T02:10:51.932Z,7.88
2017-03-25T02:11:32.593Z,7.8
2017-03-25T02:12:13.175Z,7.85
2017-03-25T02:12:53.781Z,7.88
2017-03-25T02:13:34.350Z,7.88
2017-03-25T02:14:14.925Z,7.9
2017-03-25T02:14:55.539Z,7.94
2017-03-25T02:15:36.132Z,7.88
2017-03-25T02:16:16.724Z,7.93
2017-03-25T02:16:57.310Z,7.9
2017-03-25T02:17:37.868Z,7.87
2017-03-25T02:18:18.499Z,7.82
2017-03-25T02:18:59.087Z,7.82
2017-03-25T02:19:39.670Z,7.8
2017-03-25T02:20:20.265Z,7.76
2017-03-25T02:21:00.861Z,7.77
2017-03-25T02:21:41.461Z,7.76
2017-03-25T02:22:22.063Z,7.69
2017-03-25T02:23:02.647Z,7.77
2017-03-25T02:23:43.237Z,7.75
2017-03-25T02:24:23.825Z,7.75
2017-03-25T02:25:04.419Z,7.69
2017-03-25T02:25:45.044Z,7.73
2017-03-25T02:26:25.641Z,7.7
2017-03-25T02:27:06.227Z,7.7
2017-03-25T02:27:46.818Z,7.73
2017-03-25T02:28:27.400Z,7.72
2017-03-25T02:29:08.006Z,7.67
2017-03-25T02:29:48.663Z,7.72
2017-03-25T02:30:29.268Z,7.66
2017-03-25T02:31:09.884Z,7.67
2017-03-25T02:31:50.490Z,7.72
2017-03-25T02:32:31.097Z,7.73
2017-03-25T02:33:11.666Z,7.73
2017-03-25T02:33:52.293Z,7.72
2017-03-25T02:34:32.884Z,7.73
2017-03-25T02:35:13.499Z,7.73
2017-03-25T02:35:54.071Z,7.72
2017-03-25T02:36:34.649Z,7.77
2017-03-25T02:37:15.288Z,7.69
2017-03-25T02:37:55.871Z,7.75
2017-03-25T02:38:36.448Z,7.73
2017-03-25T02:39:17.118Z,7.75
2017-03-25T02:39:57.742Z,7.82
2017-03-25T02:40:38.349Z,7.72
2017-03-25T02:41:18.917Z,7.69
2017-03-25T02:41:59.527Z,7.69
2017-03-25T02:42:40.101Z,7.72
2017-03-25T02:43:20.675Z,7.75
2017-03-25T02:44:01.260Z,7.75
2017-03-25T02:44:41.839Z,7.73
2017-03-25T02:45:22.422Z,7.7
2017-03-25T02:46:03.053Z,7.73
2017-03-25T02:46:43.631Z,7.75
2017-03-25T02:47:24.282Z,7.72
2017-03-25T02:48:04.868Z,7.73
2017-03-25T02:48:45.474Z,7.7
2017-03-25T02:49:26.075Z,7.79
2017-03-25T02:50:06.667Z,7.77
2017-03-25T02:50:47.250Z,7.72
2017-03-25T02:51:27.835Z,7.76
2017-03-25T02:52:08.428Z,7.72
2017-03-25T02:52:49.124Z,7.77
2017-03-25T02:53:29.706Z,7.75
2017-03-25T02:54:10.285Z,7.75
2017-03-25T02:54:50.875Z,7.75
2017-03-25T02:55:31.461Z,7.67
2017-03-25T02:56:12.051Z,7.69
2017-03-25T02:56:52.627Z,7.72
2017-03-25T02:57:33.204Z,7.75
2017-03-25T02:58:13.864Z,7.73
2017-03-25T02:58:54.454Z,7.77
2017-03-25T02:59:35.023Z,7.7
2017-03-25T03:00:15.670Z,7.79
2017-03-25T03:00:56.236Z,7.75
2017-03-25T03:01:36.836Z,7.75
2017-03-25T03:02:17.423Z,7.76
2017-03-25T03:02:58.020Z,7.76
2017-03-25T03:03:38.591Z,7.72
2017-03-25T03:04:19.194Z,7.76
2017-03-25T03:04:59.815Z,7.73
2017-03-25T03:05:40.473Z,7.69
2017-03-25T03:06:21.115Z,7.75
2017-03-25T03:07:01.676Z,7.76
2017-03-25T03:07:42.256Z,7.77
2017-03-25T03:08:22.847Z,7.79
2017-03-25T03:09:03.418Z,7.7
2017-03-25T03:09:44.013Z,7.87
2017-03-25T03:10:24.616Z,7.83
2017-03-25T03:11:05.211Z,7.75
2017-03-25T03:11:45.808Z,7.85
2017-03-25T03:12:26.380Z,7.76
2017-03-25T03:13:06.972Z,7.77
2017-03-25T03:13:47.566Z,7.69
2017-03-25T03:14:28.131Z,7.75
2017-03-25T03:15:08.771Z,7.8
2017-03-25T03:15:49.351Z,7.69
2017-03-25T03:16:29.959Z,7.82
2017-03-25T03:17:10.571Z,7.7
2017-03-25T03:17:51.198Z,7.72
2017-03-25T03:18:31.829Z,7.83
2017-03-25T03:19:12.384Z,7.79
2017-03-25T03:19:52.994Z,7.75
2017-03-25T03:20:33.647Z,7.67
2017-03-25T03:21:14.260Z,7.72
2017-03-25T03:21:54.902Z,7.82
2017-03-25T03:22:35.450Z,7.72
2017-03-25T03:23:16.065Z,7.8
2017-03-25T03:23:56.629Z,7.8
2017-03-25T03:24:37.207Z,7.72
2017-03-25T03:25:17.787Z,7.83
2017-03-25T03:25:58.367Z,7.79
2017-03-25T03:26:38.976Z,7.77
2017-03-25T03:27:19.579Z,7.82
2017-03-25T03:28:00.179Z,7.75
2017-03-25T03:28:40.751Z,7.85
2017-03-25T03:29:21.393Z,7.8
2017-03-25T03:30:01.976Z,7.8
2017-03-25T03:30:42.570Z,7.75
2017-03-25T03:31:23.150Z,7.73
2017-03-25T03:32:03.744Z,7.7
2017-03-25T03:32:44.324Z,7.73
2017-03-25T03:33:24.960Z,7.77
2017-03-25T03:34:05.661Z,7.75
2017-03-25T03:34:46.267Z,7.73
2017-03-25T03:35:26.835Z,7.73
2017-03-25T03:36:07.417Z,7.75
2017-03-25T03:36:48.007Z,7.72
2017-03-25T03:37:28.609Z,7.73
2017-03-25T03:38:09.207Z,7.73
2017-03-25T03:38:49.867Z,7.75
2017-03-25T03:39:30.382Z,7.7
2017-03-25T03:40:10.993Z,7.7
2017-03-25T03:40:51.568Z,7.75
2017-03-25T03:41:32.161Z,7.73
2017-03-25T03:42:12.743Z,7.75
2017-03-25T03:42:53.343Z,7.75
2017-03-25T03:43:33.925Z,7.76
2017-03-25T03:44:14.496Z,7.75
2017-03-25T03:44:55.156Z,7.69
2017-03-25T03:45:35.750Z,7.75
2017-03-25T03:46:16.326Z,7.75
2017-03-25T03:46:56.922Z,7.75
2017-03-25T03:47:37.567Z,7.75
2017-03-25T03:48:18.133Z,7.73
2017-03-25T03:48:58.766Z,7.77
2017-03-25T03:49:39.347Z,7.77
2017-03-25T03:50:19.947Z,7.73
2017-03-25T03:51:00.560Z,7.75
2017-03-25T03:51:41.136Z,7.69
2017-03-25T03:52:21.726Z,7.7
2017-03-25T03:53:02.307Z,7.73
2017-03-25T03:53:42.897Z,7.73
2017-03-25T03:54:23.491Z,7.72
2017-03-25T03:55:04.060Z,7.72
2017-03-25T03:55:44.655Z,7.73
2017-03-25T03:56:25.235Z,7.75
2017-03-25T03:57:05.826Z,7.75
2017-03-25T03:57:46.423Z,7.73
2017-03-25T03:58:26.996Z,7.75
2017-03-25T03:59:07.570Z,7.7
2017-03-25T03:59:48.136Z,7.8
2017-03-25T04:00:28.746Z,7.76
2017-03-25T04:01:09.334Z,7.73
2017-03-25T04:01:49.954Z,7.69
2017-03-25T04:02:30.525Z,7.72
2017-03-25T04:03:11.120Z,7.72
2017-03-25T04:03:51.810Z,7.72
2017-03-25T04:04:32.434Z,7.7
2017-03-25T04:05:13.044Z,7.63
2017-03-25T04:05:53.692Z,7.58
2017-03-25T04:06:34.271Z,7.66
2017-03-25T04:07:14.923Z,7.57
2017-03-25T04:07:55.493Z,7.67
2017-03-25T04:08:36.070Z,7.72
2017-03-25T04:09:16.678Z,7.7
2017-03-25T04:09:57.264Z,7.63
2017-03-25T04:10:37.892Z,7.61
2017-03-25T04:11:18.480Z,7.66
2017-03-25T04:11:59.087Z,7.7
2017-03-25T04:12:39.710Z,7.63
2017-03-25T04:13:20.290Z,7.63
2017-03-25T04:14:00.923Z,7.6
2017-03-25T04:14:41.497Z,7.69
2017-03-25T04:15:22.092Z,7.63
2017-03-25T04:16:02.688Z,7.66
2017-03-25T04:16:43.307Z,7.6
2017-03-25T04:17:23.901Z,7.61
2017-03-25T04:18:04.478Z,7.58
2017-03-25T04:18:45.042Z,7.61
2017-03-25T04:19:25.645Z,7.66
2017-03-25T04:20:06.238Z,7.63
2017-03-25T04:20:46.849Z,7.66
2017-03-25T04:21:27.441Z,7.69
2017-03-25T04:22:08.062Z,7.6
2017-03-25T04:22:48.663Z,7.6
2017-03-25T04:23:29.307Z,7.66
2017-03-25T04:24:09.893Z,7.6
2017-03-25T04:24:50.472Z,7.58
2017-03-25T04:25:31.070Z,7.61
2017-03-25T04:26:11.634Z,7.61
2017-03-25T04:26:52.212Z,7.6
2017-03-25T04:27:32.830Z,7.66
2017-03-25T04:28:13.422Z,7.69
2017-03-25T04:28:54.010Z,7.61
2017-03-25T04:29:34.597Z,7.67
2017-03-25T04:30:15.243Z,7.61
2017-03-25T04:30:55.823Z,7.66
2017-03-25T04:31:36.416Z,7.66
2017-03-25T04:32:17.032Z,7.63
2017-03-25T04:32:57.626Z,7.66
2017-03-25T04:33:38.205Z,7.61
2017-03-25T04:34:18.952Z,7.63
2017-03-25T04:34:59.593Z,7.7
2017-03-25T04:35:40.260Z,7.7
2017-03-25T04:36:20.819Z,7.63
2017-03-25T04:37:01.461Z,7.61
2017-03-25T04:37:42.087Z,7.6
2017-03-25T04:38:22.655Z,7.6
2017-03-25T04:39:03.244Z,7.58
2017-03-25T04:39:43.850Z,7.58
2017-03-25T04:40:24.446Z,7.6
2017-03-25T04:41:05.047Z,7.61
2017-03-25T04:41:45.636Z,7.61
2017-03-25T04:42:26.216Z,7.57
2017-03-25T04:43:06.818Z,7.6
2017-03-25T04:43:47.430Z,7.61
2017-03-25T04:44:28.006Z,7.61
2017-03-25T04:45:08.587Z,7.63
2017-03-25T04:45:49.197Z,7.58
2017-03-25T04:46:29.780Z,7.66
2017-03-25T04:47:10.344Z,7.6
2017-03-25T04:47:50.945Z,7.63
2017-03-25T04:48:31.578Z,7.63
2017-03-25T04:49:12.161Z,7.63
2017-03-25T04:49:52.742Z,7.67
2017-03-25T04:50:33.362Z,7.66
2017-03-25T04:51:13.920Z,7.61
2017-03-25T04:51:54.528Z,7.67
2017-03-25T04:52:35.119Z,7.6
2017-03-25T04:53:15.715Z,7.58
2017-03-25T04:53:56.313Z,7.6
2017-03-25T04:54:36.874Z,7.63
2017-03-25T04:55:17.448Z,7.6
2017-03-25T04:55:58.028Z,7.6
2017-03-25T04:56:38.640Z,7.6
2017-03-25T04:57:19.240Z,7.61
2017-03-25T04:57:59.827Z,7.6
2017-03-25T04:58:40.424Z,7.61
2017-03-25T04:59:21.013Z,7.69
2017-03-25T05:00:01.583Z,7.6
2017-03-25T05:00:42.192Z,7.69
2017-03-25T05:01:22.864Z,7.58
2017-03-25T05:02:03.410Z,7.58
2017-03-25T05:02:43.997Z,7.58
2017-03-25T05:03:24.589Z,7.57
2017-03-25T05:04:05.221Z,7.63
2017-03-25T05:04:45.828Z,7.6
2017-03-25T05:05:26.467Z,7.63
2017-03-25T05:06:07.048Z,7.67
2017-03-25T05:06:47.636Z,7.6
2017-03-25T05:07:28.261Z,7.66
2017-03-25T05:08:08.898Z,7.67
2017-03-25T05:08:49.500Z,7.57
2017-03-25T05:09:30.090Z,7.58
2017-03-25T05:10:10.666Z,7.56
2017-03-25T05:10:51.290Z,7.58
2017-03-25T05:11:31.889Z,7.66
2017-03-25T05:12:12.501Z,7.58
2017-03-25T05:12:53.123Z,7.58
2017-03-25T05:13:33.703Z,7.56
2017-03-25T05:14:14.371Z,7.61
2017-03-25T05:14:54.936Z,7.61
2017-03-25T05:15:35.522Z,7.57
2017-03-25T05:16:16.094Z,7.53
2017-03-25T05:16:56.710Z,7.5
2017-03-25T05:17:37.280Z,7.57
2017-03-25T05:18:17.857Z,7.6
2017-03-25T05:18:58.427Z,7.57
2017-03-25T05:19:39.061Z,7.6
2017-03-25T05:20:19.630Z,7.66
2017-03-25T05:21:00.222Z,7.66
2017-03-25T05:21:40.868Z,7.57
2017-03-25T05:22:21.463Z,7.53
2017-03-25T05:23:02.065Z,7.66
2017-03-25T05:23:42.655Z,7.53
2017-03-25T05:24:23.233Z,7.6
2017-03-25T05:25:03.810Z,7.66
2017-03-25T05:25:44.435Z,7.57
2017-03-25T05:26:25.033Z,7.6
2017-03-25T05:27:05.622Z,7.51
2017-03-25T05:27:46.224Z,7.56
2017-03-25T05:28:26.809Z,7.67
2017-03-25T05:29:07.405Z,7.61
2017-03-25T05:29:47.994Z,7.61
2017-03-25T05:30:28.571Z,7.56
2017-03-25T05:31:09.142Z,7.61
2017-03-25T05:31:49.721Z,7.58
2017-03-25T05:32:30.303Z,7.56
2017-03-25T05:33:10.925Z,7.61
2017-03-25T05:33:51.535Z,7.63
2017-03-25T05:34:32.103Z,7.58
2017-03-25T05:35:12.695Z,7.63
2017-03-25T05:35:53.279Z,7.67
2017-03-25T05:36:33.847Z,7.57
2017-03-25T05:37:14.431Z,7.58
2017-03-25T05:37:55.011Z,7.6
2017-03-25T05:38:35.626Z,7.57
2017-03-25T05:39:16.167Z,7.6
2017-03-25T05:39:56.790Z,7.66
2017-03-25T05:40:37.358Z,7.58
2017-03-25T05:41:17.985Z,7.63
2017-03-25T05:41:58.557Z,7.6
2017-03-25T05:42:39.189Z,7.66
2017-03-25T05:43:19.781Z,7.61
2017-03-25T05:44:00.357Z,7.58
2017-03-25T05:44:40.937Z,7.63
2017-03-25T05:45:21.535Z,7.66
2017-03-25T05:46:02.190Z,7.63
2017-03-25T05:46:42.786Z,7.66
2017-03-25T05:47:23.396Z,7.66
2017-03-25T05:48:03.982Z,7.6
2017-03-25T05:48:44.566Z,7.66
2017-03-25T05:49:25.172Z,7.61
2017-03-25T05:50:05.746Z,7.67
2017-03-25T05:50:46.318Z,7.66
2017-03-25T05:51:26.916Z,7.66
2017-03-25T05:52:07.503Z,7.61
2017-03-25T05:52:48.071Z,7.63
2017-03-25T05:53:28.644Z,7.63
2017-03-25T05:54:09.231Z,7.63
2017-03-25T05:54:49.831Z,7.58
2017-03-25T05:55:30.397Z,7.66
2017-03-25T05:56:10.969Z,7.6
2017-03-25T05:56:51.537Z,7.66
2017-03-25T05:57:32.124Z,7.58
2017-03-25T05:58:12.697Z,7.58
2017-03-25T05:58:53.308Z,7.61
2017-03-25T05:59:33.949Z,7.54
2017-03-25T06:00:14.564Z,7.56
2017-03-25T06:00:55.188Z,7.66
2017-03-25T06:01:35.769Z,7.57
2017-03-25T06:02:16.388Z,7.51
2017-03-25T06:02:57.005Z,7.5
2017-03-25T06:03:37.587Z,7.6
2017-03-25T06:04:18.189Z,7.58
2017-03-25T06:04:58.794Z,7.61
2017-03-25T06:05:39.369Z,7.6
2017-03-25T06:06:19.949Z,7.66
2017-03-25T06:07:00.547Z,7.53
2017-03-25T06:07:41.121Z,7.61
2017-03-25T06:08:21.682Z,7.63
2017-03-25T06:09:02.284Z,7.57
2017-03-25T06:09:42.892Z,7.53
2017-03-25T06:10:23.479Z,7.61
2017-03-25T06:11:04.062Z,7.61
2017-03-25T06:11:44.654Z,7.58
2017-03-25T06:12:25.277Z,7.63
2017-03-25T06:13:05.863Z,7.58
2017-03-25T06:13:46.563Z,7.61
2017-03-25T06:14:27.049Z,7.67
2017-03-25T06:15:07.643Z,7.69
2017-03-25T06:15:48.253Z,7.67
2017-03-25T06:16:28.924Z,7.66
2017-03-25T06:17:09.599Z,7.63
2017-03-25T06:17:50.193Z,7.72
2017-03-25T06:18:30.780Z,7.7
2017-03-25T06:19:11.358Z,7.76
2017-03-25T06:19:51.944Z,7.82
2017-03-25T06:20:32.522Z,7.77
2017-03-25T06:21:13.159Z,7.75
2017-03-25T06:21:53.829Z,7.7
2017-03-25T06:22:34.444Z,7.79
2017-03-25T06:23:15.120Z,7.82
2017-03-25T06:23:55.732Z,7.87
2017-03-25T06:24:36.365Z,7.91
2017-03-25T06:25:16.958Z,7.76
2017-03-25T06:25:57.544Z,7.85
2017-03-25T06:26:38.142Z,7.93
2017-03-25T06:27:18.716Z,7.91
2017-03-25T06:27:59.294Z,7.8
2017-03-25T06:28:39.895Z,7.98
2017-03-25T06:29:20.660Z,7.98
2017-03-25T06:30:01.236Z,7.91
2017-03-25T06:30:42.091Z,7.95
2017-03-25T06:31:22.814Z,8.01
2017-03-25T06:32:03.405Z,8.05
2017-03-25T06:32:44.005Z,8.01
2017-03-25T06:33:24.595Z,8.08
2017-03-25T06:34:05.177Z,8.13
2017-03-25T06:34:45.777Z,8.12
2017-03-25T06:35:26.382Z,8.13
2017-03-25T06:36:06.982Z,8.13
2017-03-25T06:36:47.582Z,8.12
2017-03-25T06:37:28.162Z,8.19
2017-03-25T06:38:08.734Z,8.18
2017-03-25T06:38:49.313Z,8.2
2017-03-25T06:39:29.931Z,8.24
2017-03-25T06:40:10.514Z,8.24
2017-03-25T06:40:51.227Z,8.28
2017-03-25T06:41:31.853Z,8.27
2017-03-25T06:42:12.445Z,8.3
2017-03-25T06:42:53.026Z,8.3
2017-03-25T06:43:33.651Z,8.38
2017-03-25T06:44:14.239Z,8.38
2017-03-25T06:44:55.014Z,8.37
2017-03-25T06:45:35.602Z,8.42
2017-03-25T06:46:16.225Z,8.42
2017-03-25T06:46:56.829Z,8.31
2017-03-25T06:47:37.440Z,8.42
2017-03-25T06:48:18.076Z,8.42
2017-03-25T06:48:58.662Z,8.38
2017-03-25T06:49:39.260Z,8.42
2017-03-25T06:50:19.844Z,8.45
2017-03-25T06:51:00.414Z,8.44
2017-03-25T06:51:40.982Z,8.38
2017-03-25T06:52:21.580Z,8.49
2017-03-25T06:53:02.145Z,8.48
2017-03-25T06:53:42.741Z,8.53
2017-03-25T06:54:23.343Z,8.67
2017-03-25T06:55:03.927Z,8.56
2017-03-25T06:55:44.558Z,8.66
2017-03-25T06:56:25.107Z,8.64
2017-03-25T06:57:05.692Z,8.64
2017-03-25T06:57:46.289Z,8.76
2017-03-25T06:58:26.865Z,8.74
2017-03-25T06:59:07.446Z,8.76
2017-03-25T06:59:48.035Z,8.89
2017-03-25T07:00:28.594Z,8.85
2017-03-25T07:01:09.180Z,8.91
2017-03-25T07:01:49.764Z,8.94
2017-03-25T07:02:30.395Z,8.87
2017-03-25T07:03:11.005Z,8.97
2017-03-25T07:03:51.589Z,8.95
2017-03-25T07:04:32.228Z,8.99
2017-03-25T07:05:12.815Z,8.95
2017-03-25T07:05:53.386Z,8.95
2017-03-25T07:06:33.961Z,9.08
2017-03-25T07:07:14.615Z,9.14
2017-03-25T07:07:55.219Z,9.11
2017-03-25T07:08:35.794Z,9.11
2017-03-25T07:09:16.425Z,9.13
2017-03-25T07:09:57.017Z,9.21
2017-03-25T07:10:37.607Z,9.22
2017-03-25T07:11:18.197Z,9.18
2017-03-25T07:11:58.815Z,9.26
2017-03-25T07:12:40.056Z,9.36
2017-03-25T07:13:20.678Z,9.61
2017-03-25T07:14:01.244Z,9.74
2017-03-25T07:14:41.876Z,9.94
2017-03-25T07:15:24.765Z,10.23
2017-03-25T07:16:11.631Z,10.34
2017-03-25T07:16:53.850Z,10.54
2017-03-25T07:17:34.446Z,10.72
2017-03-25T07:18:15.066Z,10.87
2017-03-25T07:18:55.704Z,11.08
2017-03-25T07:19:36.334Z,11.22
2017-03-25T07:20:16.925Z,11.33
2017-03-25T07:20:57.495Z,11.59
2017-03-25T07:21:38.080Z,11.69
2017-03-25T07:22:18.678Z,11.91
2017-03-25T07:22:59.292Z,12.12
2017-03-25T07:23:40.203Z,12.21
2017-03-25T07:24:21.615Z,12.43
2017-03-25T07:25:02.696Z,12.45
2017-03-25T07:25:43.297Z,12.53
2017-03-25T07:26:23.898Z,12.57
2017-03-25T07:27:04.498Z,12.61
2017-03-25T07:27:45.094Z,12.75
2017-03-25T07:28:25.680Z,12.86
2017-03-25T07:29:06.250Z,12.91
2017-03-25T07:29:46.850Z,13.01
2017-03-25T07:30:27.452Z,13.23
2017-03-25T07:31:08.034Z,13.16
2017-03-25T07:31:48.632Z,13.04
2017-03-25T07:32:29.220Z,13.08
2017-03-25T07:33:09.806Z,12.95
2017-03-25T07:33:50.434Z,12.86
2017-03-25T07:34:31.034Z,12.79
2017-03-25T07:35:11.637Z,12.62
2017-03-25T07:35:52.264Z,12.55
2017-03-25T07:36:32.847Z,12.54
2017-03-25T07:37:13.470Z,12.46
2017-03-25T07:37:54.091Z,12.43
2017-03-25T07:38:34.682Z,12.35
2017-03-25T07:39:16.719Z,12.24
2017-03-25T07:39:59.921Z,12.2
2017-03-25T07:40:40.509Z,12.18
2017-03-25T07:41:21.101Z,12.12
2017-03-25T07:42:01.737Z,11.97
2017-03-25T07:42:42.321Z,12.06
2017-03-25T07:43:22.925Z,11.91
2017-03-25T07:44:03.518Z,11.8
2017-03-25T07:44:44.210Z,11.84
2017-03-25T07:45:24.836Z,11.75
2017-03-25T07:46:05.484Z,11.65
2017-03-25T07:46:46.096Z,11.63
2017-03-25T07:47:26.700Z,11.68
2017-03-25T07:48:07.314Z,11.65
2017-03-25T07:48:47.947Z,11.5
2017-03-25T07:49:28.558Z,11.45
2017-03-25T07:50:09.142Z,11.36
2017-03-25T07:50:49.723Z,11.43
2017-03-25T07:51:30.315Z,11.27
2017-03-25T07:52:10.926Z,11.3
2017-03-25T07:52:51.514Z,11.27
2017-03-25T07:53:32.112Z,11.23
2017-03-25T07:54:12.811Z,11.19
2017-03-25T07:54:53.361Z,11.17
2017-03-25T07:55:33.988Z,11.1
2017-03-25T07:56:14.611Z,11.07
2017-03-25T07:56:55.186Z,11.08
2017-03-25T07:57:35.824Z,11.23
2017-03-25T07:58:16.399Z,11.29
2017-03-25T07:58:56.986Z,11.25
2017-03-25T07:59:37.568Z,11.25
2017-03-25T08:00:18.165Z,11.37
2017-03-25T08:00:58.816Z,11.36
2017-03-25T08:01:39.434Z,11.36
2017-03-25T08:02:20.172Z,11.33
2017-03-25T08:03:00.781Z,11.5
2017-03-25T08:03:41.415Z,11.57
2017-03-25T08:04:22.030Z,11.62
2017-03-25T08:05:02.695Z,11.59
2017-03-25T08:05:43.331Z,11.65
2017-03-25T08:06:24.071Z,11.59
2017-03-25T08:07:04.718Z,11.63
2017-03-25T08:07:45.371Z,11.72
2017-03-25T08:08:26.018Z,11.57
2017-03-25T08:09:06.636Z,11.63
2017-03-25T08:09:47.262Z,11.65
2017-03-25T08:10:27.875Z,11.72
2017-03-25T08:11:08.511Z,11.7
2017-03-25T08:11:49.130Z,11.63
2017-03-25T08:12:29.797Z,11.6
2017-03-25T08:13:10.419Z,11.6
2017-03-25T08:13:51.072Z,11.63
2017-03-25T08:14:31.672Z,11.57
2017-03-25T08:15:12.266Z,11.55
2017-03-25T08:15:52.879Z,11.6
2017-03-25T08:16:33.483Z,11.65
2017-03-25T08:17:14.055Z,11.6
2017-03-25T08:17:54.696Z,11.62
2017-03-25T08:18:35.294Z,11.59
2017-03-25T08:19:15.919Z,11.63
2017-03-25T08:19:57.404Z,11.54
2017-03-25T08:20:38.019Z,11.55
2017-03-25T08:21:19.134Z,11.51
2017-03-25T08:22:01.813Z,11.44
2017-03-25T08:22:43.361Z,11.47
2017-03-25T08:23:24.488Z,11.44
2017-03-25T08:24:05.775Z,11.4
2017-03-25T08:24:48.384Z,11.4
2017-03-25T08:25:29.832Z,11.37
2017-03-25T08:26:13.669Z,11.37
2017-03-25T08:26:54.285Z,11.32
2017-03-25T08:27:34.858Z,11.32
2017-03-25T08:28:15.476Z,11.35
2017-03-25T08:28:56.130Z,11.36
2017-03-25T08:29:36.846Z,11.37
2017-03-25T08:30:17.639Z,11.32
2017-03-25T08:30:58.242Z,11.41
2017-03-25T08:31:38.858Z,11.44
2017-03-25T08:32:19.455Z,11.41
2017-03-25T08:33:00.030Z,11.33
2017-03-25T08:33:40.626Z,11.41
2017-03-25T08:34:21.233Z,11.47
2017-03-25T08:35:01.833Z,11.48
2017-03-25T08:35:42.517Z,11.51
2017-03-25T08:36:23.140Z,11.57
2017-03-25T08:37:03.829Z,11.63
2017-03-25T08:37:45.534Z,11.55
2017-03-25T08:38:26.345Z,11.63
2017-03-25T08:39:07.006Z,11.59
2017-03-25T08:39:47.838Z,11.52
2017-03-25T08:40:28.572Z,11.59
2017-03-25T08:41:09.332Z,11.54
2017-03-25T08:41:50.174Z,11.48
2017-03-25T08:42:30.827Z,11.37
2017-03-25T08:43:11.659Z,11.52
2017-03-25T08:43:52.286Z,11.51
2017-03-25T08:44:32.877Z,11.59
2017-03-25T08:45:13.515Z,11.59
2017-03-25T08:45:54.155Z,11.54
2017-03-25T08:46:34.752Z,11.45
2017-03-25T08:47:15.346Z,11.57
2017-03-25T08:47:55.982Z,11.52
2017-03-25T08:48:36.675Z,11.55
2017-03-25T08:49:17.300Z,11.6
2017-03-25T08:49:57.908Z,11.59
2017-03-25T08:50:38.549Z,11.55
2017-03-25T08:51:19.112Z,11.65
2017-03-25T08:51:59.721Z,11.57
2017-03-25T08:52:40.381Z,11.54
2017-03-25T08:53:21.047Z,11.52
2017-03-25T08:54:01.694Z,11.48
2017-03-25T08:54:42.275Z,11.54
2017-03-25T08:55:22.927Z,11.48
2017-03-25T08:56:03.569Z,11.33
2017-03-25T08:56:44.160Z,11.36
2017-03-25T08:57:24.751Z,11.32
2017-03-25T08:58:05.333Z,11.22
2017-03-25T08:58:45.950Z,11.25
2017-03-25T08:59:26.574Z,11.23